Welcome to our new website - Welkom op onze vernieuwde website - Bienvenue sur notre nouveau site web - Willkommen auf unserer neuen Website


Onweer radar Meer informatie blitzortung!


Regen radar Meer informatie rain snow radar


Andere websites:

Onze vorige site

Leuven Template



METAR rapporten vliegvelden

   
EHGG - Leeuwarden
Gewijzigd: 19-10-2019 23:55
Gedeeltelijk bewolkt  
Gedeeltelijk bewolkt  
   Wind: Zuiden 13 km/h
Wind: Zuiden 13 km/h
Temperatuur: 11°C
Dauwpunt: 9°C
Vochtigheid: 88%
Barometer: 1005 hPa
Bewolking: Gedeeltelijk bewolkt
Zicht: meer dan 10 km
Bewolking: Gedeeltelijk bewolkt
EHGG 192155Z AUTO 18007KT 9999 NSC 11/09 Q1005
EHGG - Terschelling
Gewijzigd: 19-10-2019 23:55
Gedeeltelijk bewolkt  
Gedeeltelijk bewolkt  
   Wind: Zuiden 13 km/h
Wind: Zuiden 13 km/h
Temperatuur: 11°C
Dauwpunt: 9°C
Vochtigheid: 88%
Barometer: 1005 hPa
Bewolking: Gedeeltelijk bewolkt
Zicht: meer dan 10 km
Bewolking: Gedeeltelijk bewolkt
EHGG 192155Z AUTO 18007KT 9999 NSC 11/09 Q1005
EHAM - Amsterdam
Gewijzigd: 19-10-2019 23:55
Helder  
Helder  
   Wind: Zuiden 13 km/h
Wind: Zuiden 13 km/h
Temperatuur: 10°C
Voelt als: 8°C
Dauwpunt: 9°C
Vochtigheid: 94%
Barometer: 1005 hPa
Zicht: meer dan 10 km
Bewolking: Helder
EHAM 192155Z 18007KT CAVOK 10/09 Q1005 NOSIG
EHBK - Maastricht
Gewijzigd: 19-10-2019 23:55
Gedeeltelijk bewolkt  
Gedeeltelijk bewolkt  
   Wind: ZZW 13 km/h
Wind: ZZW 13 km/h
Temperatuur: 11°C
Dauwpunt: 10°C
Vochtigheid: 94%
Barometer: 1007 hPa
Bewolking: Gedeeltelijk bewolkt
Zicht: meer dan 10 km
Bewolking: Gedeeltelijk bewolkt
EHBK 192155Z AUTO 20007KT 9999 NSC 11/10 Q1007
  

Script ontwikkeld door  Saratoga-weather.org Aangepast voor de template door  Weerstation Leuven

U vindt ons ook hier:

European Weather Network

Weather Underground

AWEKAS

Apparatuur in gebruik:

Weerstation
Davis VP2

Weerprogramma
Cumulus

Davis VP2

Cumulus